Holbrook, Nebraska
Current Conditions -  °F | °C
As of 12:53 AM on Friday 19 Dec 2014 (Local Time) from KMCK Reporting Station
Moderate Fog Moderate Fog  
Wind Chill: 19°   Ceiling: 200
Heat Index: 27°   Visibility: 0.25mi
Dew Point: 26°   Wind: 7mph
Humidity: 96%   Direction: 230°SW
Pressure: 30.15"   Gusts: NA
Location:  40.3°N, 100.01°W
Report Text: KMCK 190653Z AUTO 23006KT 1/4SM FZFG VV002 M03/M03 A3015 RMK AO2 SLP238 I1001 T10281033
Loading
Personal Weather Stations






























Interactive Weather Map New forecast layout! Learn more

10-Day Weather Forecast

Advertisements
Track Severe Weather on mobile